sensor_id;sensor_type;location;lat;lon;timestamp;temperature;humidity
4050;DHT22;2039;50.894;6.888;2023-05-07T03:20:05;14.30;99.90
4050;DHT22;2039;50.894;6.888;2023-05-07T03:22:31;14.20;99.90
4050;DHT22;2039;50.894;6.888;2023-05-07T03:24:56;14.20;99.90
4050;DHT22;2039;50.894;6.888;2023-05-07T03:27:22;14.20;99.90
4050;DHT22;2039;50.894;6.888;2023-05-07T03:29:48;14.20;99.90
4050;DHT22;2039;50.894;6.888;2023-05-07T03:32:14;14.20;99.90
4050;DHT22;2039;50.894;6.888;2023-05-07T03:34:40;14.20;99.90
4050;DHT22;2039;50.894;6.888;2023-05-07T03:37:05;14.10;99.90
4050;DHT22;2039;50.894;6.888;2023-05-07T03:39:31;14.10;99.90
4050;DHT22;2039;50.894;6.888;2023-05-07T03:41:57;14.10;99.90
4050;DHT22;2039;50.894;6.888;2023-05-07T03:44:23;14.10;99.90
4050;DHT22;2039;50.894;6.888;2023-05-07T03:46:49;14.10;99.90
4050;DHT22;2039;50.894;6.888;2023-05-07T03:49:14;14.10;99.90
4050;DHT22;2039;50.894;6.888;2023-05-07T03:51:43;14.10;99.90
4050;DHT22;2039;50.894;6.888;2023-05-07T03:54:09;14.10;99.90
4050;DHT22;2039;50.894;6.888;2023-05-07T03:56:34;14.10;99.90
4050;DHT22;2039;50.894;6.888;2023-05-07T03:59:03;14.10;99.90
4050;DHT22;2039;50.894;6.888;2023-05-07T04:01:28;14.00;99.90
4050;DHT22;2039;50.894;6.888;2023-05-07T04:03:55;14.00;99.90
4050;DHT22;2039;50.894;6.888;2023-05-07T04:06:20;14.10;99.90
4050;DHT22;2039;50.894;6.888;2023-05-07T04:08:46;14.10;99.90
4050;DHT22;2039;50.894;6.888;2023-05-07T04:11:12;14.10;99.90
4050;DHT22;2039;50.894;6.888;2023-05-07T04:13:38;14.00;99.90
4050;DHT22;2039;50.894;6.888;2023-05-07T04:18:37;14.10;99.90
4050;DHT22;2039;50.894;6.888;2023-05-07T04:21:05;14.10;99.90
4050;DHT22;2039;50.894;6.888;2023-05-07T04:23:31;14.10;99.90
4050;DHT22;2039;50.894;6.888;2023-05-07T04:25:57;14.10;99.90
4050;DHT22;2039;50.894;6.888;2023-05-07T04:28:24;14.20;99.90
4050;DHT22;2039;50.894;6.888;2023-05-07T04:30:49;14.20;99.90
4050;DHT22;2039;50.894;6.888;2023-05-07T04:33:15;14.20;99.90
4050;DHT22;2039;50.894;6.888;2023-05-07T04:35:46;14.20;99.90
4050;DHT22;2039;50.894;6.888;2023-05-07T04:38:12;14.20;99.90
4050;DHT22;2039;50.894;6.888;2023-05-07T04:40:38;14.30;99.90
4050;DHT22;2039;50.894;6.888;2023-05-07T04:43:04;14.30;99.90
4050;DHT22;2039;50.894;6.888;2023-05-07T04:45:33;14.30;99.90
4050;DHT22;2039;50.894;6.888;2023-05-07T04:47:58;14.40;99.90
4050;DHT22;2039;50.894;6.888;2023-05-07T04:50:24;14.30;99.90
4050;DHT22;2039;50.894;6.888;2023-05-07T04:52:50;14.30;99.90
4050;DHT22;2039;50.894;6.888;2023-05-07T04:55:16;14.40;99.90
4050;DHT22;2039;50.894;6.888;2023-05-07T04:57:41;14.40;99.90
4050;DHT22;2039;50.894;6.888;2023-05-07T05:00:08;14.40;99.90
4050;DHT22;2039;50.894;6.888;2023-05-07T05:02:34;14.40;99.90
4050;DHT22;2039;50.894;6.888;2023-05-07T05:05:01;14.40;99.90
4050;DHT22;2039;50.894;6.888;2023-05-07T05:07:28;14.40;99.90
4050;DHT22;2039;50.894;6.888;2023-05-07T05:09:54;14.50;99.90
4050;DHT22;2039;50.894;6.888;2023-05-07T05:12:20;14.50;99.90
4050;DHT22;2039;50.894;6.888;2023-05-07T05:14:46;14.50;99.90
4050;DHT22;2039;50.894;6.888;2023-05-07T05:17:12;14.50;99.90
4050;DHT22;2039;50.894;6.888;2023-05-07T05:19:38;14.60;99.90
4050;DHT22;2039;50.894;6.888;2023-05-07T05:22:03;14.60;99.90
4050;DHT22;2039;50.894;6.888;2023-05-07T05:24:32;14.70;99.90
4050;DHT22;2039;50.894;6.888;2023-05-07T05:26:58;14.70;99.90
4050;DHT22;2039;50.894;6.888;2023-05-07T05:29:26;14.80;99.90
4050;DHT22;2039;50.894;6.888;2023-05-07T05:31:55;14.80;99.90
4050;DHT22;2039;50.894;6.888;2023-05-07T05:34:20;14.80;99.90
4050;DHT22;2039;50.894;6.888;2023-05-07T05:36:56;14.80;99.90
4050;DHT22;2039;50.894;6.888;2023-05-07T05:39:22;14.90;99.90
4050;DHT22;2039;50.894;6.888;2023-05-07T05:41:51;14.90;99.90
4050;DHT22;2039;50.894;6.888;2023-05-07T05:44:17;14.90;99.90
4050;DHT22;2039;50.894;6.888;2023-05-07T05:46:43;15.00;99.90
4050;DHT22;2039;50.894;6.888;2023-05-07T05:49:08;15.00;99.90
4050;DHT22;2039;50.894;6.888;2023-05-07T05:51:34;15.00;99.90
4050;DHT22;2039;50.894;6.888;2023-05-07T05:54:00;15.00;99.90
4050;DHT22;2039;50.894;6.888;2023-05-07T05:56:25;15.10;99.90
4050;DHT22;2039;50.894;6.888;2023-05-07T05:58:51;15.20;99.90
4050;DHT22;2039;50.894;6.888;2023-05-07T06:01:18;15.20;99.90
4050;DHT22;2039;50.894;6.888;2023-05-07T06:03:44;15.30;99.90
4050;DHT22;2039;50.894;6.888;2023-05-07T06:06:13;15.30;99.90
4050;DHT22;2039;50.894;6.888;2023-05-07T06:08:42;15.30;99.90
4050;DHT22;2039;50.894;6.888;2023-05-07T06:11:10;15.30;99.90
4050;DHT22;2039;50.894;6.888;2023-05-07T06:13:36;15.40;99.90
4050;DHT22;2039;50.894;6.888;2023-05-07T06:16:01;15.40;99.90
4050;DHT22;2039;50.894;6.888;2023-05-07T06:18:27;15.40;99.90
4050;DHT22;2039;50.894;6.888;2023-05-07T06:20:53;15.50;99.90
4050;DHT22;2039;50.894;6.888;2023-05-07T06:23:19;15.60;99.90
4050;DHT22;2039;50.894;6.888;2023-05-07T06:25:50;15.70;99.90
4050;DHT22;2039;50.894;6.888;2023-05-07T06:28:16;15.70;99.90
4050;DHT22;2039;50.894;6.888;2023-05-07T06:30:42;15.80;99.90
4050;DHT22;2039;50.894;6.888;2023-05-07T06:33:11;15.90;99.90
4050;DHT22;2039;50.894;6.888;2023-05-07T06:35:36;16.00;99.90
4050;DHT22;2039;50.894;6.888;2023-05-07T06:38:02;15.90;99.90
4050;DHT22;2039;50.894;6.888;2023-05-07T06:40:28;15.80;99.90
4050;DHT22;2039;50.894;6.888;2023-05-07T06:42:53;15.80;99.90
4050;DHT22;2039;50.894;6.888;2023-05-07T06:45:22;15.90;99.90
4050;DHT22;2039;50.894;6.888;2023-05-07T06:47:47;16.00;99.90
4050;DHT22;2039;50.894;6.888;2023-05-07T06:50:13;16.10;99.90
4050;DHT22;2039;50.894;6.888;2023-05-07T06:52:41;16.00;99.90
4050;DHT22;2039;50.894;6.888;2023-05-07T06:55:10;16.00;99.90
4050;DHT22;2039;50.894;6.888;2023-05-07T06:57:37;16.20;99.90
4050;DHT22;2039;50.894;6.888;2023-05-07T07:00:03;16.20;99.90
4050;DHT22;2039;50.894;6.888;2023-05-07T07:02:32;16.20;99.90
4050;DHT22;2039;50.894;6.888;2023-05-07T07:04:57;16.20;99.90
4050;DHT22;2039;50.894;6.888;2023-05-07T07:07:23;16.30;99.90
4050;DHT22;2039;50.894;6.888;2023-05-07T07:09:49;16.30;99.90
4050;DHT22;2039;50.894;6.888;2023-05-07T07:12:18;16.40;99.90
4050;DHT22;2039;50.894;6.888;2023-05-07T07:14:44;16.50;99.90
4050;DHT22;2039;50.894;6.888;2023-05-07T07:17:10;16.50;99.90
4050;DHT22;2039;50.894;6.888;2023-05-07T07:19:35;16.60;99.90
4050;DHT22;2039;50.894;6.888;2023-05-07T07:22:01;16.70;99.90
4050;DHT22;2039;50.894;6.888;2023-05-07T07:24:27;16.70;99.90
4050;DHT22;2039;50.894;6.888;2023-05-07T07:26:52;16.80;99.90
4050;DHT22;2039;50.894;6.888;2023-05-07T07:29:18;16.90;99.90
4050;DHT22;2039;50.894;6.888;2023-05-07T07:31:46;16.90;99.90
4050;DHT22;2039;50.894;6.888;2023-05-07T07:34:12;16.90;99.90
4050;DHT22;2039;50.894;6.888;2023-05-07T07:36:38;16.90;99.90
4050;DHT22;2039;50.894;6.888;2023-05-07T07:39:03;17.10;99.90
4050;DHT22;2039;50.894;6.888;2023-05-07T07:41:29;17.20;99.90
4050;DHT22;2039;50.894;6.888;2023-05-07T07:43:55;17.20;99.90
4050;DHT22;2039;50.894;6.888;2023-05-07T07:46:20;17.20;99.90
4050;DHT22;2039;50.894;6.888;2023-05-07T07:51:14;17.30;99.90
4050;DHT22;2039;50.894;6.888;2023-05-07T07:53:40;17.40;99.90
4050;DHT22;2039;50.894;6.888;2023-05-07T07:56:06;17.40;99.90
4050;DHT22;2039;50.894;6.888;2023-05-07T07:58:35;17.40;99.90
4050;DHT22;2039;50.894;6.888;2023-05-07T08:01:02;17.60;99.90
4050;DHT22;2039;50.894;6.888;2023-05-07T08:03:27;17.60;99.90
4050;DHT22;2039;50.894;6.888;2023-05-07T08:05:53;17.70;99.90
4050;DHT22;2039;50.894;6.888;2023-05-07T08:08:19;17.80;99.90
4050;DHT22;2039;50.894;6.888;2023-05-07T08:10:45;17.80;99.90
4050;DHT22;2039;50.894;6.888;2023-05-07T08:13:11;17.80;99.90
4050;DHT22;2039;50.894;6.888;2023-05-07T08:15:36;17.90;99.90
4050;DHT22;2039;50.894;6.888;2023-05-07T08:18:02;17.90;99.90
4050;DHT22;2039;50.894;6.888;2023-05-07T08:20:31;18.00;99.90
4050;DHT22;2039;50.894;6.888;2023-05-07T08:22:57;18.00;99.90
4050;DHT22;2039;50.894;6.888;2023-05-07T08:25:22;18.00;99.90
4050;DHT22;2039;50.894;6.888;2023-05-07T08:27:48;18.20;99.90
4050;DHT22;2039;50.894;6.888;2023-05-07T08:30:14;18.20;99.90
4050;DHT22;2039;50.894;6.888;2023-05-07T08:32:40;18.20;99.90
4050;DHT22;2039;50.894;6.888;2023-05-07T08:35:06;18.20;99.90
4050;DHT22;2039;50.894;6.888;2023-05-07T08:37:31;18.30;99.90
4050;DHT22;2039;50.894;6.888;2023-05-07T08:39:57;18.40;99.90
4050;DHT22;2039;50.894;6.888;2023-05-07T08:42:23;18.40;99.90
4050;DHT22;2039;50.894;6.888;2023-05-07T08:44:51;18.50;99.90
4050;DHT22;2039;50.894;6.888;2023-05-07T08:47:22;18.60;99.90
4050;DHT22;2039;50.894;6.888;2023-05-07T08:49:48;18.60;99.90
4050;DHT22;2039;50.894;6.888;2023-05-07T08:52:15;18.80;99.90
4050;DHT22;2039;50.894;6.888;2023-05-07T08:54:40;18.90;99.90
4050;DHT22;2039;50.894;6.888;2023-05-07T08:57:06;19.00;99.90
4050;DHT22;2039;50.894;6.888;2023-05-07T08:59:32;19.00;99.90
4050;DHT22;2039;50.894;6.888;2023-05-07T09:01:58;19.00;99.90
4050;DHT22;2039;50.894;6.888;2023-05-07T09:04:23;19.00;99.90
4050;DHT22;2039;50.894;6.888;2023-05-07T09:06:49;19.10;99.90
4050;DHT22;2039;50.894;6.888;2023-05-07T09:09:17;19.20;99.90
4050;DHT22;2039;50.894;6.888;2023-05-07T09:11:44;19.30;99.90
4050;DHT22;2039;50.894;6.888;2023-05-07T09:14:09;19.30;99.90
4050;DHT22;2039;50.894;6.888;2023-05-07T09:16:35;19.40;99.90
4050;DHT22;2039;50.894;6.888;2023-05-07T09:19:01;19.40;99.90
4050;DHT22;2039;50.894;6.888;2023-05-07T09:21:34;19.40;99.90
4050;DHT22;2039;50.894;6.888;2023-05-07T09:24:55;19.30;99.90
4050;DHT22;2039;50.894;6.888;2023-05-07T09:27:57;19.40;99.90
4050;DHT22;2039;50.894;6.888;2023-05-07T09:30:33;19.70;99.90
4050;DHT22;2039;50.894;6.888;2023-05-07T09:33:08;19.70;99.90
4050;DHT22;2039;50.894;6.888;2023-05-07T09:35:43;19.70;99.90
4050;DHT22;2039;50.894;6.888;2023-05-07T09:38:22;19.80;99.90
4050;DHT22;2039;50.894;6.888;2023-05-07T09:41:11;19.90;99.90
4050;DHT22;2039;50.894;6.888;2023-05-07T09:43:40;19.90;99.90
4050;DHT22;2039;50.894;6.888;2023-05-07T09:46:28;19.90;99.90
4050;DHT22;2039;50.894;6.888;2023-05-07T09:49:28;20.00;99.90
4050;DHT22;2039;50.894;6.888;2023-05-07T09:52:12;20.00;99.90
4050;DHT22;2039;50.894;6.888;2023-05-07T09:54:39;20.00;99.90
4050;DHT22;2039;50.894;6.888;2023-05-07T09:57:26;19.90;99.90
4050;DHT22;2039;50.894;6.888;2023-05-07T09:59:54;19.90;99.90
4050;DHT22;2039;50.894;6.888;2023-05-07T10:02:21;20.00;98.80
4050;DHT22;2039;50.894;6.888;2023-05-07T10:04:49;20.10;92.20
4050;DHT22;2039;50.894;6.888;2023-05-07T10:07:27;20.30;82.10
4050;DHT22;2039;50.894;6.888;2023-05-07T10:09:55;20.60;63.20
4050;DHT22;2039;50.894;6.888;2023-05-07T10:12:21;20.80;45.50
4050;DHT22;2039;50.894;6.888;2023-05-07T10:14:47;20.80;52.40
4050;DHT22;2039;50.894;6.888;2023-05-07T10:17:26;20.90;66.90
4050;DHT22;2039;50.894;6.888;2023-05-07T10:19:57;21.20;61.70
4050;DHT22;2039;50.894;6.888;2023-05-07T10:22:24;21.50;42.00
4050;DHT22;2039;50.894;6.888;2023-05-07T10:24:53;21.70;28.60
4050;DHT22;2039;50.894;6.888;2023-05-07T10:27:22;21.80;14.90
4050;DHT22;2039;50.894;6.888;2023-05-07T10:30:14;21.80;25.00
4050;DHT22;2039;50.894;6.888;2023-05-07T10:32:49;22.10;23.90
4050;DHT22;2039;50.894;6.888;2023-05-07T10:35:23;22.40;15.50
4050;DHT22;2039;50.894;6.888;2023-05-07T10:37:50;22.60;15.80
4050;DHT22;2039;50.894;6.888;2023-05-07T10:40:16;22.80;5.80
4050;DHT22;2039;50.894;6.888;2023-05-07T10:43:00;22.50;1.00
4050;DHT22;2039;50.894;6.888;2023-05-07T10:45:26;22.50;1.00
4050;DHT22;2039;50.894;6.888;2023-05-07T10:48:13;22.20;1.00
4050;DHT22;2039;50.894;6.888;2023-05-07T10:50:43;22.20;1.00
4050;DHT22;2039;50.894;6.888;2023-05-07T10:55:47;22.20;1.00
4050;DHT22;2039;50.894;6.888;2023-05-07T10:58:22;22.30;1.00
4050;DHT22;2039;50.894;6.888;2023-05-07T11:00:48;22.50;1.00
4050;DHT22;2039;50.894;6.888;2023-05-07T11:03:20;22.90;1.00
4050;DHT22;2039;50.894;6.888;2023-05-07T11:08:58;23.50;1.00
4050;DHT22;2039;50.894;6.888;2023-05-07T11:11:49;23.60;1.00
4050;DHT22;2039;50.894;6.888;2023-05-07T11:17:09;23.90;1.00
4050;DHT22;2039;50.894;6.888;2023-05-07T11:19:50;24.10;1.00
4050;DHT22;2039;50.894;6.888;2023-05-07T11:25:05;24.40;1.00
4050;DHT22;2039;50.894;6.888;2023-05-07T11:27:31;24.60;1.00
4050;DHT22;2039;50.894;6.888;2023-05-07T11:29:58;24.80;1.00
4050;DHT22;2039;50.894;6.888;2023-05-07T11:32:28;24.50;1.00
4050;DHT22;2039;50.894;6.888;2023-05-07T11:34:55;24.60;1.00
4050;DHT22;2039;50.894;6.888;2023-05-07T11:37:22;24.40;1.00
4050;DHT22;2039;50.894;6.888;2023-05-07T11:39:48;23.90;1.00
4050;DHT22;2039;50.894;6.888;2023-05-07T11:42:31;23.80;1.00
4050;DHT22;2039;50.894;6.888;2023-05-07T11:44:59;23.60;1.00
4050;DHT22;2039;50.894;6.888;2023-05-07T11:47:30;23.50;1.00
4050;DHT22;2039;50.894;6.888;2023-05-07T11:50:07;23.30;1.00
4050;DHT22;2039;50.894;6.888;2023-05-07T11:52:33;23.20;1.00
4050;DHT22;2039;50.894;6.888;2023-05-07T11:55:00;23.00;1.00
4050;DHT22;2039;50.894;6.888;2023-05-07T11:57:29;23.00;1.00
4050;DHT22;2039;50.894;6.888;2023-05-07T11:59:56;23.00;1.00
4050;DHT22;2039;50.894;6.888;2023-05-07T12:02:25;23.10;1.00
4050;DHT22;2039;50.894;6.888;2023-05-07T12:04:51;23.20;1.00
4050;DHT22;2039;50.894;6.888;2023-05-07T12:07:17;22.80;1.00
4050;DHT22;2039;50.894;6.888;2023-05-07T12:09:44;22.80;1.00
4050;DHT22;2039;50.894;6.888;2023-05-07T12:12:11;22.80;1.00
4050;DHT22;2039;50.894;6.888;2023-05-07T12:14:41;22.90;1.00
4050;DHT22;2039;50.894;6.888;2023-05-07T12:17:08;22.60;1.00
4050;DHT22;2039;50.894;6.888;2023-05-07T12:19:39;22.60;1.00
4050;DHT22;2039;50.894;6.888;2023-05-07T12:22:05;22.60;1.00
4050;DHT22;2039;50.894;6.888;2023-05-07T12:24:49;22.60;1.00
4050;DHT22;2039;50.894;6.888;2023-05-07T12:27:18;22.60;1.00
4050;DHT22;2039;50.894;6.888;2023-05-07T12:29:47;22.60;1.00
4050;DHT22;2039;50.894;6.888;2023-05-07T12:32:14;22.50;1.00
4050;DHT22;2039;50.894;6.888;2023-05-07T12:34:44;22.40;1.00
4050;DHT22;2039;50.894;6.888;2023-05-07T12:37:13;22.40;1.00
4050;DHT22;2039;50.894;6.888;2023-05-07T12:39:48;22.30;1.00
4050;DHT22;2039;50.894;6.888;2023-05-07T12:42:26;22.00;1.00
4050;DHT22;2039;50.894;6.888;2023-05-07T12:44:51;22.00;1.00
4050;DHT22;2039;50.894;6.888;2023-05-07T12:47:21;22.00;1.00
4050;DHT22;2039;50.894;6.888;2023-05-07T12:49:50;21.90;1.00
4050;DHT22;2039;50.894;6.888;2023-05-07T12:52:27;21.90;1.00
4050;DHT22;2039;50.894;6.888;2023-05-07T12:55:25;21.90;1.00
4050;DHT22;2039;50.894;6.888;2023-05-07T12:58:33;21.70;1.00
4050;DHT22;2039;50.894;6.888;2023-05-07T13:01:48;21.60;5.90
4050;DHT22;2039;50.894;6.888;2023-05-07T13:04:49;21.50;14.60
4050;DHT22;2039;50.894;6.888;2023-05-07T13:25:17;21.40;99.90
4050;DHT22;2039;50.894;6.888;2023-05-07T13:28:19;21.50;99.90
4050;DHT22;2039;50.894;6.888;2023-05-07T13:30:48;21.40;99.90
4050;DHT22;2039;50.894;6.888;2023-05-07T13:33:19;21.60;97.10
4050;DHT22;2039;50.894;6.888;2023-05-07T13:35:57;21.60;90.80
4050;DHT22;2039;50.894;6.888;2023-05-07T13:38:35;21.70;83.00
4050;DHT22;2039;50.894;6.888;2023-05-07T13:41:04;21.70;88.80
4050;DHT22;2039;50.894;6.888;2023-05-07T13:44:18;21.70;91.80
4050;DHT22;2039;50.894;6.888;2023-05-07T13:46:44;21.70;96.90
4050;DHT22;2039;50.894;6.888;2023-05-07T13:49:13;21.70;98.30
4050;DHT22;2039;50.894;6.888;2023-05-07T13:51:43;21.70;99.90
4050;DHT22;2039;50.894;6.888;2023-05-07T13:54:09;21.70;99.90
4050;DHT22;2039;50.894;6.888;2023-05-07T13:56:40;21.70;99.90
4050;DHT22;2039;50.894;6.888;2023-05-07T13:59:40;21.70;99.90
4050;DHT22;2039;50.894;6.888;2023-05-07T14:02:06;21.60;99.90
4050;DHT22;2039;50.894;6.888;2023-05-07T14:04:38;21.60;99.90
4050;DHT22;2039;50.894;6.888;2023-05-07T14:07:13;21.70;99.90
4050;DHT22;2039;50.894;6.888;2023-05-07T14:09:41;21.70;99.90
4050;DHT22;2039;50.894;6.888;2023-05-07T14:12:19;21.70;99.90
4050;DHT22;2039;50.894;6.888;2023-05-07T14:17:53;21.60;99.90
4050;DHT22;2039;50.894;6.888;2023-05-07T14:20:28;21.50;99.90
4050;DHT22;2039;50.894;6.888;2023-05-07T14:25:50;21.50;99.90
4050;DHT22;2039;50.894;6.888;2023-05-07T14:28:22;21.30;99.90
4050;DHT22;2039;50.894;6.888;2023-05-07T14:30:58;21.20;99.90
4050;DHT22;2039;50.894;6.888;2023-05-07T14:33:24;21.20;99.90
4050;DHT22;2039;50.894;6.888;2023-05-07T14:36:13;21.00;99.90
4050;DHT22;2039;50.894;6.888;2023-05-07T14:38:39;21.00;99.90
4050;DHT22;2039;50.894;6.888;2023-05-07T14:41:10;21.00;99.90
4050;DHT22;2039;50.894;6.888;2023-05-07T14:43:38;21.00;99.90
4050;DHT22;2039;50.894;6.888;2023-05-07T14:46:28;20.90;99.90
4050;DHT22;2039;50.894;6.888;2023-05-07T14:49:35;20.80;99.90
4050;DHT22;2039;50.894;6.888;2023-05-07T14:52:27;20.80;99.90
4050;DHT22;2039;50.894;6.888;2023-05-07T14:55:04;21.00;99.90
4050;DHT22;2039;50.894;6.888;2023-05-07T14:58:01;21.10;99.90
4050;DHT22;2039;50.894;6.888;2023-05-07T15:04:35;21.10;99.90
4050;DHT22;2039;50.894;6.888;2023-05-07T15:24:21;20.30;96.90
4050;DHT22;2039;50.894;6.888;2023-05-07T15:34:15;20.60;99.90
4050;DHT22;2039;50.894;6.888;2023-05-07T15:44:43;20.80;99.90
4050;DHT22;2039;50.894;6.888;2023-05-07T15:50:20;20.70;97.80
4050;DHT22;2039;50.894;6.888;2023-05-07T15:53:00;20.80;96.80
4050;DHT22;2039;50.894;6.888;2023-05-07T15:55:58;20.80;94.10
4050;DHT22;2039;50.894;6.888;2023-05-07T15:58:49;20.80;86.70
4050;DHT22;2039;50.894;6.888;2023-05-07T16:22:03;21.10;63.90
4050;DHT22;2039;50.894;6.888;2023-05-07T16:25:02;21.00;64.30
4050;DHT22;2039;50.894;6.888;2023-05-07T16:28:28;21.00;63.70
4050;DHT22;2039;50.894;6.888;2023-05-07T16:34:59;20.80;48.40
4050;DHT22;2039;50.894;6.888;2023-05-07T16:38:06;20.70;46.20
4050;DHT22;2039;50.894;6.888;2023-05-07T16:40:41;20.70;43.20
4050;DHT22;2039;50.894;6.888;2023-05-07T16:43:15;20.60;45.00
4050;DHT22;2039;50.894;6.888;2023-05-07T16:49:02;20.70;51.40
4050;DHT22;2039;50.894;6.888;2023-05-07T17:02:22;20.10;64.50
4050;DHT22;2039;50.894;6.888;2023-05-07T17:05:32;20.00;75.40
4050;DHT22;2039;50.894;6.888;2023-05-07T17:08:27;20.00;80.50
4050;DHT22;2039;50.894;6.888;2023-05-07T17:11:12;19.90;86.20
4050;DHT22;2039;50.894;6.888;2023-05-07T17:14:22;20.10;90.40
4050;DHT22;2039;50.894;6.888;2023-05-07T17:20:01;20.30;95.20
4050;DHT22;2039;50.894;6.888;2023-05-07T17:22:44;20.40;94.80
4050;DHT22;2039;50.894;6.888;2023-05-07T17:25:19;20.40;95.60
4050;DHT22;2039;50.894;6.888;2023-05-07T17:27:51;20.40;96.40
4050;DHT22;2039;50.894;6.888;2023-05-07T17:30:17;20.40;95.70
4050;DHT22;2039;50.894;6.888;2023-05-07T17:32:48;20.40;99.10
4050;DHT22;2039;50.894;6.888;2023-05-07T17:35:56;20.40;99.90
4050;DHT22;2039;50.894;6.888;2023-05-07T17:38:28;20.40;98.20
4050;DHT22;2039;50.894;6.888;2023-05-07T17:40:54;20.30;99.90
4050;DHT22;2039;50.894;6.888;2023-05-07T17:43:27;20.20;99.90
4050;DHT22;2039;50.894;6.888;2023-05-07T17:46:15;20.10;99.90
4050;DHT22;2039;50.894;6.888;2023-05-07T17:48:41;20.10;99.90
4050;DHT22;2039;50.894;6.888;2023-05-07T17:51:26;20.10;99.90
4050;DHT22;2039;50.894;6.888;2023-05-07T17:54:04;20.10;99.90
4050;DHT22;2039;50.894;6.888;2023-05-07T17:57:02;20.10;99.90
4050;DHT22;2039;50.894;6.888;2023-05-07T17:59:34;20.00;99.90
4050;DHT22;2039;50.894;6.888;2023-05-07T18:02:07;20.00;99.90
4050;DHT22;2039;50.894;6.888;2023-05-07T18:04:58;20.00;99.90
4050;DHT22;2039;50.894;6.888;2023-05-07T18:07:34;20.00;99.90
4050;DHT22;2039;50.894;6.888;2023-05-07T18:13:37;19.90;99.90
4050;DHT22;2039;50.894;6.888;2023-05-07T18:16:12;19.90;99.90
4050;DHT22;2039;50.894;6.888;2023-05-07T18:25:07;19.90;99.90
4050;DHT22;2039;50.894;6.888;2023-05-07T18:31:23;19.90;99.90
4050;DHT22;2039;50.894;6.888;2023-05-07T18:37:23;19.70;99.90
4050;DHT22;2039;50.894;6.888;2023-05-07T18:39:58;19.70;99.90
4050;DHT22;2039;50.894;6.888;2023-05-07T18:42:54;19.50;99.90
4050;DHT22;2039;50.894;6.888;2023-05-07T18:45:59;19.40;99.90
4050;DHT22;2039;50.894;6.888;2023-05-07T18:49:09;19.30;99.90
4050;DHT22;2039;50.894;6.888;2023-05-07T18:54:33;19.10;99.90
4050;DHT22;2039;50.894;6.888;2023-05-07T18:57:13;19.10;99.90
4050;DHT22;2039;50.894;6.888;2023-05-07T19:00:02;19.10;99.90
4050;DHT22;2039;50.894;6.888;2023-05-07T19:08:11;19.00;99.90
4050;DHT22;2039;50.894;6.888;2023-05-07T19:17:13;18.70;99.90
4050;DHT22;2039;50.894;6.888;2023-05-07T19:23:25;18.80;99.90
4050;DHT22;2039;50.894;6.888;2023-05-07T19:29:15;18.60;99.90
4050;DHT22;2039;50.894;6.888;2023-05-07T19:35:31;18.40;99.90
4050;DHT22;2039;50.894;6.888;2023-05-07T19:38:17;18.20;99.90
4050;DHT22;2039;50.894;6.888;2023-05-07T19:40:52;18.20;99.90
4050;DHT22;2039;50.894;6.888;2023-05-07T19:43:26;18.20;99.90
4050;DHT22;2039;50.894;6.888;2023-05-07T19:46:19;18.10;99.90
4050;DHT22;2039;50.894;6.888;2023-05-07T19:49:18;18.00;99.90
4050;DHT22;2039;50.894;6.888;2023-05-07T19:52:11;18.00;99.90
4050;DHT22;2039;50.894;6.888;2023-05-07T19:55:22;18.00;99.90
4050;DHT22;2039;50.894;6.888;2023-05-07T19:58:44;17.90;99.90
4050;DHT22;2039;50.894;6.888;2023-05-07T20:05:06;17.80;99.90
4050;DHT22;2039;50.894;6.888;2023-05-07T20:07:57;17.70;99.90
4050;DHT22;2039;50.894;6.888;2023-05-07T20:10:55;17.60;99.90
4050;DHT22;2039;50.894;6.888;2023-05-07T20:14:24;17.50;99.90
4050;DHT22;2039;50.894;6.888;2023-05-07T20:17:30;17.60;99.90
4050;DHT22;2039;50.894;6.888;2023-05-07T20:20:32;17.60;99.90
4050;DHT22;2039;50.894;6.888;2023-05-07T20:23:24;17.60;99.90
4050;DHT22;2039;50.894;6.888;2023-05-07T20:26:21;17.60;99.90
4050;DHT22;2039;50.894;6.888;2023-05-07T20:29:30;17.50;99.90
4050;DHT22;2039;50.894;6.888;2023-05-07T20:41:30;17.50;99.90
4050;DHT22;2039;50.894;6.888;2023-05-07T20:54:49;17.50;99.90
4050;DHT22;2039;50.894;6.888;2023-05-07T21:01:25;17.50;99.90
4050;DHT22;2039;50.894;6.888;2023-05-07T21:08:13;17.50;99.90
4050;DHT22;2039;50.894;6.888;2023-05-07T21:11:53;17.50;99.90
4050;DHT22;2039;50.894;6.888;2023-05-07T21:18:30;17.40;99.90
4050;DHT22;2039;50.894;6.888;2023-05-07T21:21:25;17.40;99.90
4050;DHT22;2039;50.894;6.888;2023-05-07T21:23:52;17.40;99.90
4050;DHT22;2039;50.894;6.888;2023-05-07T21:26:27;17.30;99.90
4050;DHT22;2039;50.894;6.888;2023-05-07T21:28:53;17.30;99.90
4050;DHT22;2039;50.894;6.888;2023-05-07T21:31:19;17.30;99.90
4050;DHT22;2039;50.894;6.888;2023-05-07T21:33:45;17.30;99.90
4050;DHT22;2039;50.894;6.888;2023-05-07T21:36:10;17.30;99.90
4050;DHT22;2039;50.894;6.888;2023-05-07T21:38:37;17.30;99.90
4050;DHT22;2039;50.894;6.888;2023-05-07T21:41:03;17.30;99.90
4050;DHT22;2039;50.894;6.888;2023-05-07T21:43:29;17.20;99.90
4050;DHT22;2039;50.894;6.888;2023-05-07T21:45:55;17.20;99.90
4050;DHT22;2039;50.894;6.888;2023-05-07T21:48:22;17.20;99.90
4050;DHT22;2039;50.894;6.888;2023-05-07T21:51:01;17.20;99.90
4050;DHT22;2039;50.894;6.888;2023-05-07T21:53:27;17.20;99.90
4050;DHT22;2039;50.894;6.888;2023-05-07T21:55:53;17.20;99.90
4050;DHT22;2039;50.894;6.888;2023-05-07T21:58:19;17.20;99.90
4050;DHT22;2039;50.894;6.888;2023-05-07T22:00:44;17.30;99.90
4050;DHT22;2039;50.894;6.888;2023-05-07T22:03:10;17.20;99.90
4050;DHT22;2039;50.894;6.888;2023-05-07T22:05:36;17.30;99.90
4050;DHT22;2039;50.894;6.888;2023-05-07T22:08:02;17.20;99.90
4050;DHT22;2039;50.894;6.888;2023-05-07T22:10:28;17.10;99.90
4050;DHT22;2039;50.894;6.888;2023-05-07T22:12:53;17.10;99.90
4050;DHT22;2039;50.894;6.888;2023-05-07T22:15:19;17.10;99.90
4050;DHT22;2039;50.894;6.888;2023-05-07T22:17:45;17.10;99.90
4050;DHT22;2039;50.894;6.888;2023-05-07T22:20:11;17.20;99.90
4050;DHT22;2039;50.894;6.888;2023-05-07T22:22:49;17.20;99.90
4050;DHT22;2039;50.894;6.888;2023-05-07T22:25:20;17.20;99.90
4050;DHT22;2039;50.894;6.888;2023-05-07T22:27:46;17.20;99.90
4050;DHT22;2039;50.894;6.888;2023-05-07T22:30:12;17.20;99.90
4050;DHT22;2039;50.894;6.888;2023-05-07T22:32:37;17.20;99.90
4050;DHT22;2039;50.894;6.888;2023-05-07T22:35:04;17.10;99.90
4050;DHT22;2039;50.894;6.888;2023-05-07T22:37:29;17.10;99.90
4050;DHT22;2039;50.894;6.888;2023-05-07T22:39:57;17.10;99.90
4050;DHT22;2039;50.894;6.888;2023-05-07T22:42:23;17.10;99.90
4050;DHT22;2039;50.894;6.888;2023-05-07T22:44:53;17.10;99.90
4050;DHT22;2039;50.894;6.888;2023-05-07T22:47:18;17.10;99.90
4050;DHT22;2039;50.894;6.888;2023-05-07T22:49:44;17.10;99.90
4050;DHT22;2039;50.894;6.888;2023-05-07T22:52:10;17.10;99.90
4050;DHT22;2039;50.894;6.888;2023-05-07T22:54:35;17.10;99.90
4050;DHT22;2039;50.894;6.888;2023-05-07T22:57:01;17.00;99.90
4050;DHT22;2039;50.894;6.888;2023-05-07T22:59:27;17.00;99.90
4050;DHT22;2039;50.894;6.888;2023-05-07T23:01:53;17.00;99.90
4050;DHT22;2039;50.894;6.888;2023-05-07T23:04:19;17.10;99.90
4050;DHT22;2039;50.894;6.888;2023-05-07T23:06:44;17.10;99.90
4050;DHT22;2039;50.894;6.888;2023-05-07T23:09:10;17.10;99.90
4050;DHT22;2039;50.894;6.888;2023-05-07T23:11:37;17.10;99.90
4050;DHT22;2039;50.894;6.888;2023-05-07T23:14:03;17.00;99.90
4050;DHT22;2039;50.894;6.888;2023-05-07T23:16:29;16.90;99.90
4050;DHT22;2039;50.894;6.888;2023-05-07T23:18:55;16.90;99.90
4050;DHT22;2039;50.894;6.888;2023-05-07T23:21:23;16.90;99.90